createdAt,value
2022-12-06T06:03:47.721Z,101109.94
2022-12-06T06:08:50.458Z,101099.22
2022-12-06T06:13:54.505Z,101102.91
2022-12-06T06:18:56.765Z,101104.56
2022-12-06T06:23:59.213Z,101104.53
2022-12-06T06:29:01.438Z,101111.66
2022-12-06T06:34:03.810Z,101111.66
2022-12-06T06:39:06.008Z,101119.66
2022-12-06T06:44:08.249Z,101112.72
2022-12-06T06:49:11.863Z,101117.31
2022-12-06T06:54:15.404Z,101121.16
2022-12-06T06:59:17.721Z,101130.19
2022-12-06T07:04:20.000Z,101123.25
2022-12-06T07:09:22.203Z,101126.06
2022-12-06T07:14:24.503Z,101126.81
2022-12-06T07:19:26.802Z,101128.94
2022-12-06T07:24:29.022Z,101123.13
2022-12-06T07:29:31.215Z,101129.72
2022-12-06T07:34:33.461Z,101133.72
2022-12-06T07:39:35.646Z,101134.88
2022-12-06T07:45:01.306Z,101145.13
2022-12-06T07:50:06.160Z,101138.66
2022-12-06T07:55:09.982Z,101139.03
2022-12-06T08:00:15.570Z,101134.69
2022-12-06T08:05:17.847Z,101127.75
2022-12-06T08:10:20.088Z,101133.09
2022-12-06T08:15:22.342Z,101129.34
2022-12-06T08:20:24.597Z,101126.63
2022-12-06T08:25:26.779Z,101130.69
2022-12-06T08:30:29.304Z,101126.25
2022-12-06T08:35:31.660Z,101128.25
2022-12-06T08:40:33.905Z,101134.91
2022-12-06T08:45:36.452Z,101135.22
2022-12-06T08:50:39.007Z,101129.78
2022-12-06T08:55:41.634Z,101131.72
2022-12-06T09:00:43.873Z,101130.69
2022-12-06T09:05:46.084Z,101137.66
2022-12-06T09:10:48.280Z,101126.16
2022-12-06T09:15:50.520Z,101133.38
2022-12-06T09:20:52.763Z,101127.47
2022-12-06T09:25:55.072Z,101123.91
2022-12-06T09:30:57.904Z,101124.22
2022-12-06T09:36:05.839Z,101123.78
2022-12-06T09:41:50.940Z,101120.34
2022-12-06T09:47:02.196Z,101122.91
2022-12-06T09:52:41.624Z,101104.63
2022-12-06T09:57:56.175Z,101107.16
2022-12-06T10:02:58.385Z,101094.41
2022-12-06T10:08:49.121Z,101083.69
2022-12-06T10:14:13.885Z,101081.34
2022-12-06T10:19:41.583Z,101080.88
2022-12-06T10:25:05.567Z,101071.81
2022-12-06T10:30:11.037Z,101071.53
2022-12-06T10:35:19.348Z,101073.59
2022-12-06T10:40:34.238Z,101068.22
2022-12-06T10:46:24.061Z,101069.72
2022-12-06T10:51:34.546Z,101063.03
2022-12-06T10:56:41.737Z,101062.13
2022-12-06T11:01:45.821Z,101060.50
2022-12-06T11:06:54.947Z,101047.13
2022-12-06T11:11:58.019Z,101047.38
2022-12-06T11:17:05.134Z,101038.75
2022-12-06T11:22:35.261Z,101026.44
2022-12-06T11:27:44.938Z,101019.13
2022-12-06T11:32:50.405Z,101020.91
2022-12-06T11:38:02.035Z,101024.13
2022-12-06T11:43:08.988Z,101014.47
2022-12-06T11:48:18.006Z,101015.25
2022-12-06T11:53:27.014Z,101018.38
2022-12-06T11:59:01.529Z,101021.19
2022-12-06T12:04:32.290Z,101017.34
2022-12-06T12:10:00.588Z,101009.59
2022-12-06T12:15:03.125Z,101003.47
2022-12-06T12:20:08.547Z,100997.53
2022-12-06T12:25:36.978Z,101008.38
2022-12-06T12:30:52.779Z,100997.06
2022-12-06T12:36:02.124Z,100984.31
2022-12-06T12:41:23.430Z,100990.25
2022-12-06T12:46:26.134Z,100983.72
2022-12-06T12:51:36.911Z,100980.16
2022-12-06T12:56:39.465Z,100972.13
2022-12-06T13:02:03.316Z,100973.00
2022-12-06T13:07:31.830Z,100964.50
2022-12-06T13:12:44.845Z,100963.78
2022-12-06T13:18:00.962Z,100961.13
2022-12-06T13:23:09.200Z,100959.91
2022-12-06T13:28:19.021Z,100954.41
2022-12-06T13:33:27.233Z,100952.63
2022-12-06T13:38:32.342Z,100966.59
2022-12-06T13:43:39.560Z,100969.16
2022-12-06T13:49:05.618Z,100967.19
2022-12-06T13:54:13.862Z,100962.25
2022-12-06T13:59:16.048Z,100970.00
2022-12-06T14:04:24.061Z,100976.09
2022-12-06T14:09:28.848Z,100974.00
2022-12-06T14:14:31.015Z,100963.44
2022-12-06T14:19:45.492Z,100966.72
2022-12-06T14:25:15.383Z,100958.97
2022-12-06T14:30:26.381Z,100953.91
2022-12-06T14:35:36.993Z,100958.97
2022-12-06T14:41:01.087Z,100959.13
2022-12-06T14:46:10.668Z,100946.50
2022-12-06T14:51:23.220Z,100950.22
2022-12-06T14:56:32.710Z,100939.97
2022-12-06T15:01:36.410Z,100950.66
2022-12-06T15:06:55.208Z,100931.94
2022-12-06T15:12:42.406Z,100936.22
2022-12-06T15:17:45.128Z,100946.19
2022-12-06T15:22:47.390Z,100943.53
2022-12-06T15:27:49.661Z,100934.47
2022-12-06T15:32:51.897Z,100938.03
2022-12-06T15:37:54.084Z,100938.47
2022-12-06T15:43:02.008Z,100936.22
2022-12-06T15:48:04.989Z,100944.56
2022-12-06T15:53:10.346Z,100947.38
2022-12-06T15:58:12.552Z,100947.53
2022-12-06T16:03:14.929Z,100953.63
2022-12-06T16:08:17.256Z,100948.44
2022-12-06T16:13:23.348Z,100951.28
2022-12-06T16:18:25.647Z,100959.28
2022-12-06T16:24:18.228Z,100951.84
2022-12-06T16:29:20.694Z,100941.72
2022-12-06T16:34:23.140Z,100935.78
2022-12-06T16:39:25.735Z,100939.06
2022-12-06T16:44:28.137Z,100947.53
2022-12-06T16:49:48.300Z,100950.34
2022-12-06T16:54:50.838Z,100948.59
2022-12-06T16:59:53.125Z,100953.47
2022-12-06T17:04:56.653Z,100952.88
2022-12-06T17:09:59.485Z,100954.69
2022-12-06T17:15:01.902Z,100961.66
2022-12-06T17:20:05.882Z,100960.47
2022-12-06T17:25:09.913Z,100955.13
2022-12-06T17:30:17.714Z,100966.13
2022-12-06T17:35:19.927Z,100966.28
2022-12-06T17:40:22.129Z,100960.47
2022-12-06T17:45:25.707Z,100960.78
2022-12-06T17:50:27.879Z,100964.06
2022-12-06T17:55:30.208Z,100974.28
2022-12-06T18:00:32.394Z,100978.31
2022-12-06T18:05:34.627Z,100972.25
2022-12-06T18:10:36.800Z,100968.22
2022-12-06T18:15:39.093Z,100974.78
2022-12-06T18:20:43.130Z,100956.16
2022-12-06T18:25:45.337Z,100950.53
2022-12-06T18:30:47.563Z,100949.06
2022-12-06T18:35:53.570Z,100942.63
2022-12-06T18:41:08.485Z,100942.06
2022-12-06T18:46:21.969Z,100942.22
2022-12-06T18:51:27.366Z,100939.25
2022-12-06T18:56:32.400Z,100942.94
2022-12-06T19:01:37.087Z,100938.94
2022-12-06T19:06:39.393Z,100926.59
2022-12-06T19:11:44.281Z,100938.78
2022-12-06T19:16:49.338Z,100932.84
2022-12-06T19:21:54.266Z,100933.13
2022-12-06T19:27:00.007Z,100928.84
2022-12-06T19:32:02.534Z,100931.66
2022-12-06T19:37:04.870Z,100937.63
2022-12-06T19:42:25.710Z,100947.13
2022-12-06T19:47:27.910Z,100941.31
2022-12-06T19:52:31.132Z,100939.53
2022-12-06T19:57:33.551Z,100928.97
2022-12-06T20:02:36.099Z,100936.56
2022-12-06T20:07:38.387Z,100928.97
2022-12-06T20:12:40.639Z,100933.00
2022-12-06T20:17:42.987Z,100921.22
2022-12-06T20:22:45.235Z,100913.50
2022-12-06T20:27:53.366Z,100925.84
2022-12-06T20:32:55.671Z,100919.16
2022-12-06T20:37:57.903Z,100920.03
2022-12-06T20:43:00.130Z,100911.13
2022-12-06T20:48:02.315Z,100899.66
2022-12-06T20:53:04.588Z,100891.34
2022-12-06T20:58:06.790Z,100892.06
2022-12-06T21:03:09.168Z,100899.66
2022-12-06T21:08:11.663Z,100901.16
2022-12-06T21:13:13.939Z,100893.72
2022-12-06T21:18:19.823Z,100895.63
2022-12-06T21:23:22.362Z,100895.03
2022-12-06T21:28:24.634Z,100881.34
2022-12-06T21:33:27.005Z,100883.00
2022-12-06T21:38:32.710Z,100886.13
2022-12-06T21:43:36.223Z,100888.81
2022-12-06T21:48:39.254Z,100890.91
2022-12-06T21:53:41.600Z,100898.25
2022-12-06T21:58:44.350Z,100892.31
2022-12-06T22:03:51.202Z,100896.66
2022-12-06T22:09:02.718Z,100891.16
2022-12-06T22:14:05.575Z,100894.91
2022-12-06T22:19:07.818Z,100892.06
2022-12-06T22:24:10.198Z,100881.03
2022-12-06T22:29:12.709Z,100882.69
2022-12-06T22:34:14.947Z,100877.63
2022-12-06T22:39:18.563Z,100873.03
2022-12-06T22:44:20.875Z,100868.28
